sensor_id;sensor_type;location;lat;lon;timestamp;temperature;humidity
17845;DHT22;9047;53.486;10.218;2022-12-18T00:00:09;-4.90;99.90
17845;DHT22;9047;53.486;10.218;2022-12-18T00:02:36;-4.90;99.90
17845;DHT22;9047;53.486;10.218;2022-12-18T00:05:07;-5.00;99.90
17845;DHT22;9047;53.486;10.218;2022-12-18T00:07:35;-5.00;99.90
17845;DHT22;9047;53.486;10.218;2022-12-18T00:10:04;-5.00;99.90
17845;DHT22;9047;53.486;10.218;2022-12-18T00:12:31;-5.00;99.90
17845;DHT22;9047;53.486;10.218;2022-12-18T00:15:03;-5.00;99.90
17845;DHT22;9047;53.486;10.218;2022-12-18T00:17:30;-5.10;99.90
17845;DHT22;9047;53.486;10.218;2022-12-18T00:19:57;-5.10;99.90
17845;DHT22;9047;53.486;10.218;2022-12-18T00:22:24;-5.10;99.90
17845;DHT22;9047;53.486;10.218;2022-12-18T00:24:51;-5.20;99.90
17845;DHT22;9047;53.486;10.218;2022-12-18T00:27:18;-5.20;99.90
17845;DHT22;9047;53.486;10.218;2022-12-18T00:29:45;-5.20;99.90
17845;DHT22;9047;53.486;10.218;2022-12-18T00:32:14;-5.20;99.90
17845;DHT22;9047;53.486;10.218;2022-12-18T00:34:41;-5.30;99.90
17845;DHT22;9047;53.486;10.218;2022-12-18T00:37:08;-5.30;99.90
17845;DHT22;9047;53.486;10.218;2022-12-18T00:39:35;-5.30;99.90
17845;DHT22;9047;53.486;10.218;2022-12-18T00:42:02;-5.30;99.90
17845;DHT22;9047;53.486;10.218;2022-12-18T00:44:47;-5.30;99.90
17845;DHT22;9047;53.486;10.218;2022-12-18T00:47:16;-5.30;99.90
17845;DHT22;9047;53.486;10.218;2022-12-18T00:49:43;-5.40;99.90
17845;DHT22;9047;53.486;10.218;2022-12-18T00:52:10;-5.30;99.90
17845;DHT22;9047;53.486;10.218;2022-12-18T00:54:38;-5.50;99.90
17845;DHT22;9047;53.486;10.218;2022-12-18T00:57:08;-5.50;99.90
17845;DHT22;9047;53.486;10.218;2022-12-18T00:59:36;-5.50;99.90
17845;DHT22;9047;53.486;10.218;2022-12-18T01:02:04;-5.50;99.90
17845;DHT22;9047;53.486;10.218;2022-12-18T01:04:35;-5.50;99.90
17845;DHT22;9047;53.486;10.218;2022-12-18T01:07:03;-5.50;99.90
17845;DHT22;9047;53.486;10.218;2022-12-18T01:09:32;-5.50;99.90
17845;DHT22;9047;53.486;10.218;2022-12-18T01:12:01;-5.50;99.90
17845;DHT22;9047;53.486;10.218;2022-12-18T01:14:31;-5.50;99.90
17845;DHT22;9047;53.486;10.218;2022-12-18T01:16:59;-5.50;99.90
17845;DHT22;9047;53.486;10.218;2022-12-18T01:19:28;-5.50;99.90
17845;DHT22;9047;53.486;10.218;2022-12-18T01:21:58;-5.50;99.90
17845;DHT22;9047;53.486;10.218;2022-12-18T01:24:26;-5.40;99.90
17845;DHT22;9047;53.486;10.218;2022-12-18T01:26:54;-5.60;99.90
17845;DHT22;9047;53.486;10.218;2022-12-18T01:29:23;-5.60;99.90
17845;DHT22;9047;53.486;10.218;2022-12-18T01:31:50;-5.60;99.90
17845;DHT22;9047;53.486;10.218;2022-12-18T01:34:17;-5.70;99.90
17845;DHT22;9047;53.486;10.218;2022-12-18T01:36:44;-5.60;99.90
17845;DHT22;9047;53.486;10.218;2022-12-18T01:39:14;-5.60;99.90
17845;DHT22;9047;53.486;10.218;2022-12-18T01:41:42;-5.60;99.90
17845;DHT22;9047;53.486;10.218;2022-12-18T01:44:55;-5.60;99.90
17845;DHT22;9047;53.486;10.218;2022-12-18T01:47:26;-5.70;99.90
17845;DHT22;9047;53.486;10.218;2022-12-18T01:49:57;-5.70;99.90
17845;DHT22;9047;53.486;10.218;2022-12-18T01:52:27;-5.60;99.90
17845;DHT22;9047;53.486;10.218;2022-12-18T01:54:57;-5.60;99.90
17845;DHT22;9047;53.486;10.218;2022-12-18T01:57:26;-5.70;99.90
17845;DHT22;9047;53.486;10.218;2022-12-18T02:00:00;-5.70;99.90
17845;DHT22;9047;53.486;10.218;2022-12-18T02:02:29;-5.70;99.90
17845;DHT22;9047;53.486;10.218;2022-12-18T02:04:56;-5.70;99.90
17845;DHT22;9047;53.486;10.218;2022-12-18T02:07:30;-5.70;99.90
17845;DHT22;9047;53.486;10.218;2022-12-18T02:10:06;-5.80;99.90
17845;DHT22;9047;53.486;10.218;2022-12-18T02:12:42;-5.80;99.90
17845;DHT22;9047;53.486;10.218;2022-12-18T02:15:16;-5.80;99.90
17845;DHT22;9047;53.486;10.218;2022-12-18T02:17:50;-5.80;99.90
17845;DHT22;9047;53.486;10.218;2022-12-18T02:20:23;-5.80;99.90
17845;DHT22;9047;53.486;10.218;2022-12-18T02:23:03;-5.80;99.90
17845;DHT22;9047;53.486;10.218;2022-12-18T02:25:56;-5.90;99.90
17845;DHT22;9047;53.486;10.218;2022-12-18T02:28:29;-5.90;99.90
17845;DHT22;9047;53.486;10.218;2022-12-18T02:31:00;-5.90;99.90
17845;DHT22;9047;53.486;10.218;2022-12-18T02:33:30;-5.90;99.90
17845;DHT22;9047;53.486;10.218;2022-12-18T02:35:59;-5.90;99.90
17845;DHT22;9047;53.486;10.218;2022-12-18T02:38:30;-5.90;99.90
17845;DHT22;9047;53.486;10.218;2022-12-18T02:41:00;-5.90;99.90
17845;DHT22;9047;53.486;10.218;2022-12-18T02:43:30;-5.90;99.90
17845;DHT22;9047;53.486;10.218;2022-12-18T02:46:00;-5.90;99.90
17845;DHT22;9047;53.486;10.218;2022-12-18T02:48:47;-5.90;99.90
17845;DHT22;9047;53.486;10.218;2022-12-18T02:51:22;-6.00;99.90
17845;DHT22;9047;53.486;10.218;2022-12-18T02:53:56;-6.00;99.90
17845;DHT22;9047;53.486;10.218;2022-12-18T02:56:31;-5.90;99.90
17845;DHT22;9047;53.486;10.218;2022-12-18T02:59:04;-5.90;99.90
17845;DHT22;9047;53.486;10.218;2022-12-18T03:01:38;-6.00;99.90
17845;DHT22;9047;53.486;10.218;2022-12-18T03:04:12;-6.00;99.90
17845;DHT22;9047;53.486;10.218;2022-12-18T03:06:44;-6.00;99.90
17845;DHT22;9047;53.486;10.218;2022-12-18T03:09:18;-6.00;99.90
17845;DHT22;9047;53.486;10.218;2022-12-18T03:11:53;-6.00;99.90
17845;DHT22;9047;53.486;10.218;2022-12-18T03:14:40;-6.10;99.90
17845;DHT22;9047;53.486;10.218;2022-12-18T03:17:10;-6.10;99.90
17845;DHT22;9047;53.486;10.218;2022-12-18T03:19:40;-6.00;99.90
17845;DHT22;9047;53.486;10.218;2022-12-18T03:22:14;-6.10;99.90
17845;DHT22;9047;53.486;10.218;2022-12-18T03:24:48;-6.10;99.90
17845;DHT22;9047;53.486;10.218;2022-12-18T03:27:20;-6.10;99.90
17845;DHT22;9047;53.486;10.218;2022-12-18T03:29:52;-6.10;99.90
17845;DHT22;9047;53.486;10.218;2022-12-18T03:32:29;-6.10;99.90
17845;DHT22;9047;53.486;10.218;2022-12-18T03:35:00;-6.10;99.90
17845;DHT22;9047;53.486;10.218;2022-12-18T03:37:29;-6.10;99.90
17845;DHT22;9047;53.486;10.218;2022-12-18T03:39:56;-6.10;99.90
17845;DHT22;9047;53.486;10.218;2022-12-18T03:42:29;-6.10;99.90
17845;DHT22;9047;53.486;10.218;2022-12-18T03:45:03;-6.20;99.90
17845;DHT22;9047;53.486;10.218;2022-12-18T03:47:38;-6.20;99.90
17845;DHT22;9047;53.486;10.218;2022-12-18T03:50:12;-6.20;99.90
17845;DHT22;9047;53.486;10.218;2022-12-18T03:52:45;-6.20;99.90
17845;DHT22;9047;53.486;10.218;2022-12-18T03:55:14;-6.20;99.90
17845;DHT22;9047;53.486;10.218;2022-12-18T03:57:48;-6.30;99.90
17845;DHT22;9047;53.486;10.218;2022-12-18T04:00:18;-6.30;99.90
17845;DHT22;9047;53.486;10.218;2022-12-18T04:02:50;-6.30;99.90
17845;DHT22;9047;53.486;10.218;2022-12-18T04:05:18;-6.30;99.90
17845;DHT22;9047;53.486;10.218;2022-12-18T04:07:50;-6.30;99.90
17845;DHT22;9047;53.486;10.218;2022-12-18T04:10:19;-6.30;99.90
17845;DHT22;9047;53.486;10.218;2022-12-18T04:12:52;-6.30;99.90
17845;DHT22;9047;53.486;10.218;2022-12-18T04:15:22;-6.30;99.90
17845;DHT22;9047;53.486;10.218;2022-12-18T04:17:53;-6.30;99.90
17845;DHT22;9047;53.486;10.218;2022-12-18T04:20:20;-6.30;99.90
17845;DHT22;9047;53.486;10.218;2022-12-18T04:22:47;-6.30;99.90
17845;DHT22;9047;53.486;10.218;2022-12-18T04:25:15;-6.20;99.90
17845;DHT22;9047;53.486;10.218;2022-12-18T04:27:43;-6.40;99.90
17845;DHT22;9047;53.486;10.218;2022-12-18T04:30:22;-6.40;99.90
17845;DHT22;9047;53.486;10.218;2022-12-18T04:32:49;-6.40;99.90
17845;DHT22;9047;53.486;10.218;2022-12-18T04:35:18;-6.50;99.90
17845;DHT22;9047;53.486;10.218;2022-12-18T04:37:48;-6.50;99.90
17845;DHT22;9047;53.486;10.218;2022-12-18T04:40:17;-6.50;99.90
17845;DHT22;9047;53.486;10.218;2022-12-18T04:42:44;-6.50;99.90
17845;DHT22;9047;53.486;10.218;2022-12-18T04:45:13;-6.50;99.90
17845;DHT22;9047;53.486;10.218;2022-12-18T04:47:40;-6.50;99.90
17845;DHT22;9047;53.486;10.218;2022-12-18T04:50:08;-6.50;99.90
17845;DHT22;9047;53.486;10.218;2022-12-18T04:52:36;-6.40;99.90
17845;DHT22;9047;53.486;10.218;2022-12-18T04:55:06;-6.60;99.90
17845;DHT22;9047;53.486;10.218;2022-12-18T04:57:33;-6.60;99.90
17845;DHT22;9047;53.486;10.218;2022-12-18T05:00:00;-6.60;99.90
17845;DHT22;9047;53.486;10.218;2022-12-18T05:02:29;-6.60;99.90
17845;DHT22;9047;53.486;10.218;2022-12-18T05:04:56;-6.60;99.90
17845;DHT22;9047;53.486;10.218;2022-12-18T05:07:24;-6.70;99.90
17845;DHT22;9047;53.486;10.218;2022-12-18T05:09:51;-6.70;99.90
17845;DHT22;9047;53.486;10.218;2022-12-18T05:12:22;-6.70;99.90
17845;DHT22;9047;53.486;10.218;2022-12-18T05:14:51;-6.60;99.90
17845;DHT22;9047;53.486;10.218;2022-12-18T05:17:18;-6.70;99.90
17845;DHT22;9047;53.486;10.218;2022-12-18T05:19:47;-6.70;99.90
17845;DHT22;9047;53.486;10.218;2022-12-18T05:22:14;-6.60;99.90
17845;DHT22;9047;53.486;10.218;2022-12-18T05:24:42;-6.60;99.90
17845;DHT22;9047;53.486;10.218;2022-12-18T05:27:11;-6.70;99.90
17845;DHT22;9047;53.486;10.218;2022-12-18T05:29:38;-6.70;99.90
17845;DHT22;9047;53.486;10.218;2022-12-18T05:32:07;-6.70;99.90
17845;DHT22;9047;53.486;10.218;2022-12-18T05:34:38;-6.70;99.90
17845;DHT22;9047;53.486;10.218;2022-12-18T05:37:07;-6.70;99.90
17845;DHT22;9047;53.486;10.218;2022-12-18T05:39:34;-6.70;99.90
17845;DHT22;9047;53.486;10.218;2022-12-18T05:42:01;-6.70;99.90
17845;DHT22;9047;53.486;10.218;2022-12-18T05:44:29;-6.70;99.90
17845;DHT22;9047;53.486;10.218;2022-12-18T05:46:55;-6.70;99.90
17845;DHT22;9047;53.486;10.218;2022-12-18T05:49:22;-6.70;99.90
17845;DHT22;9047;53.486;10.218;2022-12-18T05:51:50;-6.70;99.90
17845;DHT22;9047;53.486;10.218;2022-12-18T05:54:18;-6.80;99.90
17845;DHT22;9047;53.486;10.218;2022-12-18T05:56:45;-6.70;99.90
17845;DHT22;9047;53.486;10.218;2022-12-18T05:59:15;-6.70;99.90
17845;DHT22;9047;53.486;10.218;2022-12-18T06:01:42;-6.70;99.90
17845;DHT22;9047;53.486;10.218;2022-12-18T06:04:09;-6.80;99.90
17845;DHT22;9047;53.486;10.218;2022-12-18T06:06:38;-6.80;99.90
17845;DHT22;9047;53.486;10.218;2022-12-18T06:09:05;-6.80;99.90
17845;DHT22;9047;53.486;10.218;2022-12-18T06:11:37;-6.80;99.90
17845;DHT22;9047;53.486;10.218;2022-12-18T06:14:07;-6.80;99.90
17845;DHT22;9047;53.486;10.218;2022-12-18T06:16:34;-6.80;99.90
17845;DHT22;9047;53.486;10.218;2022-12-18T06:19:04;-6.90;99.90
17845;DHT22;9047;53.486;10.218;2022-12-18T06:21:32;-6.90;99.90
17845;DHT22;9047;53.486;10.218;2022-12-18T06:24:01;-6.90;99.90
17845;DHT22;9047;53.486;10.218;2022-12-18T06:26:29;-6.90;99.90
17845;DHT22;9047;53.486;10.218;2022-12-18T06:28:57;-6.90;99.90
17845;DHT22;9047;53.486;10.218;2022-12-18T06:31:24;-6.90;99.90
17845;DHT22;9047;53.486;10.218;2022-12-18T06:33:51;-7.00;99.90
17845;DHT22;9047;53.486;10.218;2022-12-18T06:36:19;-7.00;99.90
17845;DHT22;9047;53.486;10.218;2022-12-18T06:38:46;-7.10;99.90
17845;DHT22;9047;53.486;10.218;2022-12-18T06:41:15;-7.10;99.90
17845;DHT22;9047;53.486;10.218;2022-12-18T06:43:45;-7.10;99.90
17845;DHT22;9047;53.486;10.218;2022-12-18T06:46:13;-7.10;99.90
17845;DHT22;9047;53.486;10.218;2022-12-18T06:48:40;-7.10;99.90
17845;DHT22;9047;53.486;10.218;2022-12-18T06:51:08;-7.10;99.90
17845;DHT22;9047;53.486;10.218;2022-12-18T06:53:36;-7.20;99.90
17845;DHT22;9047;53.486;10.218;2022-12-18T06:56:06;-7.10;99.90
17845;DHT22;9047;53.486;10.218;2022-12-18T06:58:33;-7.10;99.90
17845;DHT22;9047;53.486;10.218;2022-12-18T07:01:01;-7.10;99.90
17845;DHT22;9047;53.486;10.218;2022-12-18T07:03:33;-7.10;99.90
17845;DHT22;9047;53.486;10.218;2022-12-18T07:06:00;-7.10;99.90
17845;DHT22;9047;53.486;10.218;2022-12-18T07:08:29;-7.10;99.90
17845;DHT22;9047;53.486;10.218;2022-12-18T07:10:57;-7.10;99.90
17845;DHT22;9047;53.486;10.218;2022-12-18T07:13:27;-7.10;99.90
17845;DHT22;9047;53.486;10.218;2022-12-18T07:15:54;-7.10;99.90
17845;DHT22;9047;53.486;10.218;2022-12-18T07:18:34;-7.10;99.90
17845;DHT22;9047;53.486;10.218;2022-12-18T07:21:04;-7.10;99.90
17845;DHT22;9047;53.486;10.218;2022-12-18T07:23:33;-7.10;99.90
17845;DHT22;9047;53.486;10.218;2022-12-18T07:26:02;-7.10;99.90
17845;DHT22;9047;53.486;10.218;2022-12-18T07:28:29;-7.10;99.90
17845;DHT22;9047;53.486;10.218;2022-12-18T07:30:57;-7.10;99.90
17845;DHT22;9047;53.486;10.218;2022-12-18T07:33:27;-7.10;99.90
17845;DHT22;9047;53.486;10.218;2022-12-18T07:36:01;-7.10;99.90
17845;DHT22;9047;53.486;10.218;2022-12-18T07:38:29;-7.10;99.90
17845;DHT22;9047;53.486;10.218;2022-12-18T07:41:00;-7.10;99.90
17845;DHT22;9047;53.486;10.218;2022-12-18T07:43:28;-7.10;99.90
17845;DHT22;9047;53.486;10.218;2022-12-18T07:45:57;-7.00;99.90
17845;DHT22;9047;53.486;10.218;2022-12-18T07:48:27;-7.00;99.90
17845;DHT22;9047;53.486;10.218;2022-12-18T07:51:03;-7.00;99.90
17845;DHT22;9047;53.486;10.218;2022-12-18T07:53:32;-7.00;99.90
17845;DHT22;9047;53.486;10.218;2022-12-18T07:56:00;-7.00;99.90
17845;DHT22;9047;53.486;10.218;2022-12-18T07:58:29;-7.00;99.90
17845;DHT22;9047;53.486;10.218;2022-12-18T08:01:02;-6.90;99.90
17845;DHT22;9047;53.486;10.218;2022-12-18T08:03:33;-6.90;99.90
17845;DHT22;9047;53.486;10.218;2022-12-18T08:06:18;-6.90;99.90
17845;DHT22;9047;53.486;10.218;2022-12-18T08:08:52;-6.80;99.90
17845;DHT22;9047;53.486;10.218;2022-12-18T08:11:33;-6.80;99.90
17845;DHT22;9047;53.486;10.218;2022-12-18T08:14:02;-6.80;99.90
17845;DHT22;9047;53.486;10.218;2022-12-18T08:16:29;-6.60;99.90
17845;DHT22;9047;53.486;10.218;2022-12-18T08:18:57;-6.70;99.90
17845;DHT22;9047;53.486;10.218;2022-12-18T08:21:29;-6.70;99.90
17845;DHT22;9047;53.486;10.218;2022-12-18T08:23:59;-6.60;99.90
17845;DHT22;9047;53.486;10.218;2022-12-18T08:26:30;-6.60;99.90
17845;DHT22;9047;53.486;10.218;2022-12-18T08:29:01;-6.50;99.90
17845;DHT22;9047;53.486;10.218;2022-12-18T08:31:30;-6.50;99.90
17845;DHT22;9047;53.486;10.218;2022-12-18T08:34:10;-6.40;99.90
17845;DHT22;9047;53.486;10.218;2022-12-18T08:36:41;-6.40;99.90
17845;DHT22;9047;53.486;10.218;2022-12-18T08:39:09;-6.30;99.90
17845;DHT22;9047;53.486;10.218;2022-12-18T08:41:38;-6.30;99.90
17845;DHT22;9047;53.486;10.218;2022-12-18T08:44:07;-6.30;99.90
17845;DHT22;9047;53.486;10.218;2022-12-18T08:46:52;-6.20;99.90
17845;DHT22;9047;53.486;10.218;2022-12-18T08:49:22;-6.10;99.90
17845;DHT22;9047;53.486;10.218;2022-12-18T08:51:56;-6.10;99.90
17845;DHT22;9047;53.486;10.218;2022-12-18T08:54:25;-6.00;99.90
17845;DHT22;9047;53.486;10.218;2022-12-18T08:59:28;-5.90;99.90
17845;DHT22;9047;53.486;10.218;2022-12-18T09:02:11;-5.90;99.90
17845;DHT22;9047;53.486;10.218;2022-12-18T09:04:39;-5.80;99.90
17845;DHT22;9047;53.486;10.218;2022-12-18T09:07:09;-5.70;99.90
17845;DHT22;9047;53.486;10.218;2022-12-18T09:10:01;-5.70;99.90
17845;DHT22;9047;53.486;10.218;2022-12-18T09:13:04;-5.60;99.90
17845;DHT22;9047;53.486;10.218;2022-12-18T09:15:41;-5.40;99.90
17845;DHT22;9047;53.486;10.218;2022-12-18T09:18:11;-5.40;99.90
17845;DHT22;9047;53.486;10.218;2022-12-18T09:20:39;-5.30;99.90
17845;DHT22;9047;53.486;10.218;2022-12-18T09:23:22;-5.30;99.90
17845;DHT22;9047;53.486;10.218;2022-12-18T09:26:03;-5.20;99.90
17845;DHT22;9047;53.486;10.218;2022-12-18T09:28:31;-5.10;99.90
17845;DHT22;9047;53.486;10.218;2022-12-18T09:31:04;-5.10;99.90
17845;DHT22;9047;53.486;10.218;2022-12-18T09:33:32;-5.00;99.90
17845;DHT22;9047;53.486;10.218;2022-12-18T09:36:02;-4.90;99.90
17845;DHT22;9047;53.486;10.218;2022-12-18T09:38:34;-4.90;99.90
17845;DHT22;9047;53.486;10.218;2022-12-18T09:41:06;-4.80;99.90
17845;DHT22;9047;53.486;10.218;2022-12-18T09:43:45;-4.70;99.90
17845;DHT22;9047;53.486;10.218;2022-12-18T09:46:17;-4.70;99.90
17845;DHT22;9047;53.486;10.218;2022-12-18T09:48:50;-4.50;99.90
17845;DHT22;9047;53.486;10.218;2022-12-18T09:51:27;-4.40;99.90
17845;DHT22;9047;53.486;10.218;2022-12-18T09:54:01;-4.30;99.90
17845;DHT22;9047;53.486;10.218;2022-12-18T09:56:35;-4.20;99.90
17845;DHT22;9047;53.486;10.218;2022-12-18T09:59:05;-4.10;99.90
17845;DHT22;9047;53.486;10.218;2022-12-18T10:01:32;-4.10;99.90
17845;DHT22;9047;53.486;10.218;2022-12-18T10:04:00;-4.00;99.90
17845;DHT22;9047;53.486;10.218;2022-12-18T10:06:35;-4.00;99.90
17845;DHT22;9047;53.486;10.218;2022-12-18T10:09:09;-4.00;99.90
17845;DHT22;9047;53.486;10.218;2022-12-18T10:11:48;-3.90;99.90
17845;DHT22;9047;53.486;10.218;2022-12-18T10:14:22;-3.80;99.90
17845;DHT22;9047;53.486;10.218;2022-12-18T10:16:57;-3.70;99.90
17845;DHT22;9047;53.486;10.218;2022-12-18T10:19:36;-3.70;99.90
17845;DHT22;9047;53.486;10.218;2022-12-18T10:22:11;-3.60;99.90
17845;DHT22;9047;53.486;10.218;2022-12-18T10:24:52;-3.50;99.90
17845;DHT22;9047;53.486;10.218;2022-12-18T10:27:23;-3.50;99.90
17845;DHT22;9047;53.486;10.218;2022-12-18T10:29:51;-3.40;99.90
17845;DHT22;9047;53.486;10.218;2022-12-18T10:32:20;-3.30;99.90
17845;DHT22;9047;53.486;10.218;2022-12-18T10:34:48;-3.30;99.90
17845;DHT22;9047;53.486;10.218;2022-12-18T10:37:17;-3.20;99.90
17845;DHT22;9047;53.486;10.218;2022-12-18T10:39:48;-3.10;99.90
17845;DHT22;9047;53.486;10.218;2022-12-18T10:42:33;-3.10;99.90
17845;DHT22;9047;53.486;10.218;2022-12-18T10:45:01;-3.10;99.90
17845;DHT22;9047;53.486;10.218;2022-12-18T10:47:28;-3.10;99.90
17845;DHT22;9047;53.486;10.218;2022-12-18T10:49:56;-3.10;99.90
17845;DHT22;9047;53.486;10.218;2022-12-18T10:52:25;-3.10;99.90
17845;DHT22;9047;53.486;10.218;2022-12-18T10:54:59;-3.00;99.90
17845;DHT22;9047;53.486;10.218;2022-12-18T10:57:33;-3.00;99.90
17845;DHT22;9047;53.486;10.218;2022-12-18T11:00:24;-2.90;99.90
17845;DHT22;9047;53.486;10.218;2022-12-18T11:02:53;-2.80;99.90
17845;DHT22;9047;53.486;10.218;2022-12-18T11:05:28;-2.70;99.90
17845;DHT22;9047;53.486;10.218;2022-12-18T11:07:57;-2.50;99.90
17845;DHT22;9047;53.486;10.218;2022-12-18T11:10:33;-2.30;99.90
17845;DHT22;9047;53.486;10.218;2022-12-18T11:13:17;-2.20;99.90
17845;DHT22;9047;53.486;10.218;2022-12-18T11:15:46;-2.20;99.90
17845;DHT22;9047;53.486;10.218;2022-12-18T11:18:21;-2.20;99.90
17845;DHT22;9047;53.486;10.218;2022-12-18T11:20:53;-2.10;99.90
17845;DHT22;9047;53.486;10.218;2022-12-18T11:23:27;-2.10;99.90
17845;DHT22;9047;53.486;10.218;2022-12-18T11:25:58;-2.00;99.90
17845;DHT22;9047;53.486;10.218;2022-12-18T11:28:35;-1.90;99.90
17845;DHT22;9047;53.486;10.218;2022-12-18T11:31:19;-2.00;99.90
17845;DHT22;9047;53.486;10.218;2022-12-18T11:33:58;-2.00;99.90
17845;DHT22;9047;53.486;10.218;2022-12-18T11:36:31;-2.00;99.90
17845;DHT22;9047;53.486;10.218;2022-12-18T11:39:03;-2.00;99.90
17845;DHT22;9047;53.486;10.218;2022-12-18T11:41:39;-2.10;99.90
17845;DHT22;9047;53.486;10.218;2022-12-18T11:44:29;-2.10;99.90
17845;DHT22;9047;53.486;10.218;2022-12-18T11:47:01;-2.10;99.90
17845;DHT22;9047;53.486;10.218;2022-12-18T11:49:34;-2.10;99.90
17845;DHT22;9047;53.486;10.218;2022-12-18T11:52:06;-2.00;99.90
17845;DHT22;9047;53.486;10.218;2022-12-18T11:54:36;-1.90;99.90
17845;DHT22;9047;53.486;10.218;2022-12-18T11:57:10;-1.60;99.90
17845;DHT22;9047;53.486;10.218;2022-12-18T11:59:44;-1.30;99.90
17845;DHT22;9047;53.486;10.218;2022-12-18T12:02:28;-1.00;99.90
17845;DHT22;9047;53.486;10.218;2022-12-18T12:05:11;-0.80;99.90
17845;DHT22;9047;53.486;10.218;2022-12-18T12:07:47;-0.70;99.90
17845;DHT22;9047;53.486;10.218;2022-12-18T12:10:32;-0.70;99.90
17845;DHT22;9047;53.486;10.218;2022-12-18T12:13:17;-0.70;99.90
17845;DHT22;9047;53.486;10.218;2022-12-18T12:15:58;-0.80;99.90
17845;DHT22;9047;53.486;10.218;2022-12-18T12:18:40;-0.90;99.90
17845;DHT22;9047;53.486;10.218;2022-12-18T12:21:13;-1.00;99.90
17845;DHT22;9047;53.486;10.218;2022-12-18T12:23:50;-1.10;99.90
17845;DHT22;9047;53.486;10.218;2022-12-18T12:26:27;-1.20;99.90
17845;DHT22;9047;53.486;10.218;2022-12-18T12:29:12;-1.20;99.90
17845;DHT22;9047;53.486;10.218;2022-12-18T12:31:52;-1.30;99.90
17845;DHT22;9047;53.486;10.218;2022-12-18T12:34:24;-1.30;99.90
17845;DHT22;9047;53.486;10.218;2022-12-18T12:37:05;-1.30;99.90
17845;DHT22;9047;53.486;10.218;2022-12-18T12:39:37;-1.30;99.90
17845;DHT22;9047;53.486;10.218;2022-12-18T12:42:11;-1.30;99.90
17845;DHT22;9047;53.486;10.218;2022-12-18T12:45:01;-1.30;99.90
17845;DHT22;9047;53.486;10.218;2022-12-18T12:47:37;-1.30;99.90
17845;DHT22;9047;53.486;10.218;2022-12-18T12:50:11;-1.20;99.90
17845;DHT22;9047;53.486;10.218;2022-12-18T12:52:42;-1.20;99.90
17845;DHT22;9047;53.486;10.218;2022-12-18T12:55:14;-1.10;99.90
17845;DHT22;9047;53.486;10.218;2022-12-18T12:57:46;-1.00;99.90
17845;DHT22;9047;53.486;10.218;2022-12-18T13:00:19;-0.90;99.90
17845;DHT22;9047;53.486;10.218;2022-12-18T13:02:52;-0.90;99.90
17845;DHT22;9047;53.486;10.218;2022-12-18T13:05:25;-0.80;99.90
17845;DHT22;9047;53.486;10.218;2022-12-18T13:07:56;-0.80;99.90
17845;DHT22;9047;53.486;10.218;2022-12-18T13:10:33;-0.80;99.90
17845;DHT22;9047;53.486;10.218;2022-12-18T13:13:02;-0.80;99.90
17845;DHT22;9047;53.486;10.218;2022-12-18T13:15:49;-0.90;99.90
17845;DHT22;9047;53.486;10.218;2022-12-18T13:18:31;-0.90;99.90
17845;DHT22;9047;53.486;10.218;2022-12-18T13:21:03;-0.90;99.90
17845;DHT22;9047;53.486;10.218;2022-12-18T13:23:40;-0.90;99.90
17845;DHT22;9047;53.486;10.218;2022-12-18T13:26:31;-0.90;99.90
17845;DHT22;9047;53.486;10.218;2022-12-18T13:29:06;-0.90;99.90
17845;DHT22;9047;53.486;10.218;2022-12-18T13:34:39;-0.90;99.90
17845;DHT22;9047;53.486;10.218;2022-12-18T13:37:43;-0.90;99.90
17845;DHT22;9047;53.486;10.218;2022-12-18T13:43:48;-1.10;99.90
17845;DHT22;9047;53.486;10.218;2022-12-18T13:46:25;-1.20;99.90
17845;DHT22;9047;53.486;10.218;2022-12-18T13:48:57;-1.40;99.90
17845;DHT22;9047;53.486;10.218;2022-12-18T13:51:35;-1.50;99.90
17845;DHT22;9047;53.486;10.218;2022-12-18T13:54:17;-1.60;99.90
17845;DHT22;9047;53.486;10.218;2022-12-18T13:56:58;-1.80;99.90
17845;DHT22;9047;53.486;10.218;2022-12-18T13:59:37;-1.90;99.90
17845;DHT22;9047;53.486;10.218;2022-12-18T14:02:22;-2.00;99.90
17845;DHT22;9047;53.486;10.218;2022-12-18T14:07:38;-2.10;99.90
17845;DHT22;9047;53.486;10.218;2022-12-18T14:10:13;-2.10;99.90
17845;DHT22;9047;53.486;10.218;2022-12-18T14:12:46;-2.20;99.90
17845;DHT22;9047;53.486;10.218;2022-12-18T14:15:31;-2.30;99.90
17845;DHT22;9047;53.486;10.218;2022-12-18T14:18:01;-2.30;99.90
17845;DHT22;9047;53.486;10.218;2022-12-18T14:23:44;-2.40;99.90
17845;DHT22;9047;53.486;10.218;2022-12-18T14:26:23;-2.40;99.90
17845;DHT22;9047;53.486;10.218;2022-12-18T14:28:55;-2.50;99.90
17845;DHT22;9047;53.486;10.218;2022-12-18T14:31:37;-2.50;99.90
17845;DHT22;9047;53.486;10.218;2022-12-18T14:34:18;-2.50;99.90
17845;DHT22;9047;53.486;10.218;2022-12-18T14:36:52;-2.60;99.90
17845;DHT22;9047;53.486;10.218;2022-12-18T14:39:21;-2.60;99.90
17845;DHT22;9047;53.486;10.218;2022-12-18T14:44:38;-2.70;99.90
17845;DHT22;9047;53.486;10.218;2022-12-18T14:47:17;-2.70;99.90
17845;DHT22;9047;53.486;10.218;2022-12-18T14:52:31;-3.00;99.90
17845;DHT22;9047;53.486;10.218;2022-12-18T14:55:15;-2.90;99.90
17845;DHT22;9047;53.486;10.218;2022-12-18T14:57:42;-3.00;99.90
17845;DHT22;9047;53.486;10.218;2022-12-18T15:00:16;-3.00;99.90
17845;DHT22;9047;53.486;10.218;2022-12-18T15:02:51;-3.10;99.90
17845;DHT22;9047;53.486;10.218;2022-12-18T15:05:31;-3.10;99.90
17845;DHT22;9047;53.486;10.218;2022-12-18T15:10:48;-3.10;99.90
17845;DHT22;9047;53.486;10.218;2022-12-18T15:13:22;-3.10;99.90
17845;DHT22;9047;53.486;10.218;2022-12-18T15:15:52;-3.10;99.90
17845;DHT22;9047;53.486;10.218;2022-12-18T15:18:21;-3.10;99.90
17845;DHT22;9047;53.486;10.218;2022-12-18T15:20:52;-3.20;99.90
17845;DHT22;9047;53.486;10.218;2022-12-18T15:23:23;-3.20;99.90
17845;DHT22;9047;53.486;10.218;2022-12-18T15:26:00;-3.20;99.90
17845;DHT22;9047;53.486;10.218;2022-12-18T15:28:38;-3.20;99.90
17845;DHT22;9047;53.486;10.218;2022-12-18T15:31:23;-3.30;99.90
17845;DHT22;9047;53.486;10.218;2022-12-18T15:34:10;-3.30;99.90
17845;DHT22;9047;53.486;10.218;2022-12-18T15:36:39;-3.30;99.90
17845;DHT22;9047;53.486;10.218;2022-12-18T15:39:09;-3.30;99.90
17845;DHT22;9047;53.486;10.218;2022-12-18T15:41:39;-3.30;99.90
17845;DHT22;9047;53.486;10.218;2022-12-18T15:44:26;-3.30;99.90
17845;DHT22;9047;53.486;10.218;2022-12-18T15:46:52;-3.30;99.90
17845;DHT22;9047;53.486;10.218;2022-12-18T15:49:23;-3.30;99.90
17845;DHT22;9047;53.486;10.218;2022-12-18T15:51:53;-3.30;99.90
17845;DHT22;9047;53.486;10.218;2022-12-18T15:54:21;-3.30;99.90
17845;DHT22;9047;53.486;10.218;2022-12-18T15:57:07;-3.30;99.90
17845;DHT22;9047;53.486;10.218;2022-12-18T15:59:50;-3.20;99.90
17845;DHT22;9047;53.486;10.218;2022-12-18T16:02:22;-3.20;99.90
17845;DHT22;9047;53.486;10.218;2022-12-18T16:04:49;-3.10;99.90
17845;DHT22;9047;53.486;10.218;2022-12-18T16:07:17;-3.10;99.90
17845;DHT22;9047;53.486;10.218;2022-12-18T16:09:44;-3.00;99.90
17845;DHT22;9047;53.486;10.218;2022-12-18T16:12:19;-3.00;99.90
17845;DHT22;9047;53.486;10.218;2022-12-18T16:14:48;-3.00;99.90
17845;DHT22;9047;53.486;10.218;2022-12-18T16:17:17;-2.90;99.90
17845;DHT22;9047;53.486;10.218;2022-12-18T16:19:45;-2.90;99.90
17845;DHT22;9047;53.486;10.218;2022-12-18T16:22:41;-2.90;99.90
17845;DHT22;9047;53.486;10.218;2022-12-18T16:25:18;-2.90;99.90